createdAt,value
2022-08-11T00:01:22.536Z,95.70
2022-08-11T00:03:57.466Z,95.90
2022-08-11T00:06:27.916Z,95.70
2022-08-11T00:08:57.546Z,95.60
2022-08-11T00:11:34.447Z,95.80
2022-08-11T00:14:04.516Z,95.80
2022-08-11T00:16:33.886Z,95.80
2022-08-11T00:19:04.906Z,95.90
2022-08-11T00:22:05.330Z,96.00
2022-08-11T00:24:34.781Z,96.30
2022-08-11T00:27:21.046Z,96.30
2022-08-11T00:29:54.507Z,96.20
2022-08-11T00:32:23.556Z,96.00
2022-08-11T00:35:51.011Z,96.10
2022-08-11T00:37:49.790Z,96.20
2022-08-11T00:40:25.505Z,96.30
2022-08-11T00:43:20.278Z,96.30
2022-08-11T00:46:09.688Z,96.20
2022-08-11T00:48:48.007Z,96.20
2022-08-11T00:52:02.278Z,96.00
2022-08-11T00:54:43.647Z,96.20
2022-08-11T00:57:38.677Z,96.70
2022-08-11T01:00:14.107Z,96.50
2022-08-11T01:03:18.510Z,96.60
2022-08-11T01:06:08.030Z,96.70
2022-08-11T01:09:10.035Z,96.70
2022-08-11T01:12:26.450Z,96.70
2022-08-11T01:15:31.716Z,96.70
2022-08-11T01:18:41.867Z,96.70
2022-08-11T01:21:55.151Z,96.70
2022-08-11T01:24:58.087Z,96.70
2022-08-11T01:28:04.142Z,96.70
2022-08-11T01:31:23.815Z,96.70
2022-08-11T01:34:21.297Z,96.70
2022-08-11T01:37:17.328Z,96.70
2022-08-11T01:40:19.176Z,96.70
2022-08-11T01:43:38.345Z,96.70
2022-08-11T01:46:16.696Z,96.70
2022-08-11T01:48:54.407Z,96.70
2022-08-11T01:51:31.706Z,96.60
2022-08-11T01:54:07.056Z,96.40
2022-08-11T01:56:57.348Z,96.60
2022-08-11T01:59:33.706Z,96.60
2022-08-11T02:02:44.928Z,96.60
2022-08-11T02:05:26.706Z,96.70
2022-08-11T02:08:03.425Z,96.70
2022-08-11T02:10:59.806Z,96.70
2022-08-11T02:13:37.508Z,96.70
2022-08-11T02:16:17.158Z,96.70
2022-08-11T02:19:10.949Z,96.70
2022-08-11T02:22:05.029Z,96.70
2022-08-11T02:24:41.125Z,96.70
2022-08-11T02:27:19.036Z,96.70
2022-08-11T02:29:57.006Z,96.70
2022-08-11T02:32:50.900Z,96.70
2022-08-11T02:35:26.041Z,96.70
2022-08-11T02:38:08.506Z,96.70
2022-08-11T02:40:43.496Z,96.70
2022-08-11T02:43:27.269Z,96.70
2022-08-11T02:46:18.117Z,96.70
2022-08-11T02:49:24.466Z,96.70
2022-08-11T02:52:05.848Z,96.70
2022-08-11T02:54:39.617Z,96.70
2022-08-11T02:57:16.667Z,96.70
2022-08-11T02:59:53.958Z,96.70
2022-08-11T03:02:34.903Z,96.70
2022-08-11T03:05:17.898Z,96.70
2022-08-11T03:08:03.488Z,96.70
2022-08-11T03:10:44.312Z,96.70
2022-08-11T03:13:38.436Z,96.70
2022-08-11T03:16:35.327Z,96.70
2022-08-11T03:19:12.480Z,96.70
2022-08-11T03:22:02.921Z,96.70
2022-08-11T03:24:45.289Z,96.70
2022-08-11T03:27:29.179Z,96.70
2022-08-11T03:30:08.708Z,96.70
2022-08-11T03:33:19.150Z,96.70
2022-08-11T03:36:03.889Z,96.70
2022-08-11T03:38:46.977Z,96.70
2022-08-11T03:42:02.086Z,96.70
2022-08-11T03:44:45.478Z,96.70
2022-08-11T03:47:25.308Z,96.70
2022-08-11T03:50:07.897Z,96.70
2022-08-11T03:52:48.796Z,96.70
2022-08-11T03:55:28.126Z,96.70
2022-08-11T03:58:32.511Z,96.70
2022-08-11T04:01:45.370Z,96.70
2022-08-11T04:04:51.623Z,96.70
2022-08-11T04:07:58.358Z,96.70
2022-08-11T04:11:00.037Z,96.70
2022-08-11T04:14:23.548Z,96.70
2022-08-11T04:17:09.128Z,96.70
2022-08-11T04:20:23.428Z,96.70
2022-08-11T04:24:34.486Z,96.70
2022-08-11T04:26:45.027Z,96.70
2022-08-11T04:29:36.065Z,96.70
2022-08-11T04:32:45.228Z,96.70
2022-08-11T04:35:26.998Z,96.70
2022-08-11T04:38:38.886Z,96.70
2022-08-11T04:41:32.329Z,96.70
2022-08-11T04:44:40.312Z,96.70
2022-08-11T04:48:04.203Z,96.70
2022-08-11T04:51:17.298Z,96.70
2022-08-11T04:54:15.792Z,96.70
2022-08-11T04:57:07.653Z,96.70
2022-08-11T05:00:23.914Z,96.70
2022-08-11T05:03:25.372Z,96.70
2022-08-11T05:06:22.581Z,96.70
2022-08-11T05:09:23.970Z,96.70
2022-08-11T05:12:33.019Z,96.70
2022-08-11T05:15:23.160Z,96.70
2022-08-11T05:18:19.739Z,96.70
2022-08-11T05:21:10.370Z,96.70
2022-08-11T05:24:22.194Z,96.70
2022-08-11T05:27:13.512Z,96.70
2022-08-11T05:30:05.071Z,96.70
2022-08-11T05:33:02.028Z,96.70
2022-08-11T05:36:00.473Z,96.70
2022-08-11T05:38:43.481Z,96.70
2022-08-11T05:41:32.002Z,96.70
2022-08-11T05:44:22.637Z,96.70
2022-08-11T05:47:10.423Z,96.70
2022-08-11T05:50:01.066Z,96.70
2022-08-11T05:52:56.624Z,96.70
2022-08-11T05:56:01.743Z,96.70
2022-08-11T05:58:42.254Z,96.70
2022-08-11T06:01:12.873Z,96.70
2022-08-11T06:04:04.303Z,96.70
2022-08-11T06:06:34.583Z,96.70
2022-08-11T06:09:03.663Z,96.70
2022-08-11T06:11:43.871Z,96.70
2022-08-11T06:14:15.844Z,96.70
2022-08-11T06:16:48.195Z,96.70
2022-08-11T06:19:17.362Z,96.70
2022-08-11T06:21:49.270Z,96.70
2022-08-11T06:24:18.150Z,96.70
2022-08-11T06:29:54.926Z,96.70
2022-08-11T06:32:29.157Z,96.70
2022-08-11T06:35:08.102Z,96.70
2022-08-11T06:37:45.832Z,96.70
2022-08-11T06:40:27.691Z,96.70
2022-08-11T06:43:02.591Z,96.70
2022-08-11T06:45:37.891Z,96.70
2022-08-11T06:48:15.768Z,96.70
2022-08-11T06:51:08.505Z,96.70
2022-08-11T06:53:44.231Z,96.70
2022-08-11T06:57:18.629Z,96.70
2022-08-11T07:00:02.922Z,96.70
2022-08-11T07:02:34.137Z,96.70
2022-08-11T07:05:08.561Z,96.70
2022-08-11T07:08:37.399Z,96.70
2022-08-11T07:11:59.851Z,96.70
2022-08-11T07:14:49.089Z,96.70
2022-08-11T07:17:21.400Z,96.70
2022-08-11T07:20:12.973Z,96.70
2022-08-11T07:23:11.231Z,96.70
2022-08-11T07:26:00.599Z,96.70
2022-08-11T07:28:50.374Z,96.70
2022-08-11T07:31:26.391Z,96.70
2022-08-11T07:34:07.376Z,96.70
2022-08-11T07:36:41.333Z,96.70
2022-08-11T07:39:16.335Z,96.70
2022-08-11T07:41:45.426Z,96.70
2022-08-11T07:44:17.353Z,96.70
2022-08-11T07:47:06.317Z,96.70
2022-08-11T07:49:56.121Z,96.70
2022-08-11T07:52:29.893Z,96.70
2022-08-11T07:55:00.643Z,96.70
2022-08-11T07:58:15.016Z,96.70
2022-08-11T08:01:02.824Z,96.70
2022-08-11T08:03:54.624Z,96.70
2022-08-11T08:06:42.152Z,96.70
2022-08-11T08:09:29.540Z,96.60
2022-08-11T08:12:18.951Z,96.70
2022-08-11T08:15:06.021Z,96.50
2022-08-11T08:18:09.996Z,96.30
2022-08-11T08:20:40.801Z,96.50
2022-08-11T08:23:09.611Z,96.30
2022-08-11T08:25:40.352Z,96.40
2022-08-11T08:28:11.844Z,96.10
2022-08-11T08:30:51.311Z,95.80
2022-08-11T08:33:23.663Z,95.70
2022-08-11T08:36:12.269Z,95.60
2022-08-11T08:38:42.542Z,95.60
2022-08-11T08:41:12.934Z,95.80
2022-08-11T08:43:49.594Z,95.50
2022-08-11T08:46:22.329Z,94.80
2022-08-11T08:48:53.267Z,95.20
2022-08-11T08:52:02.559Z,94.80
2022-08-11T08:54:30.009Z,95.30
2022-08-11T08:56:58.963Z,94.80
2022-08-11T08:59:38.141Z,95.10
2022-08-11T09:02:17.062Z,95.20
2022-08-11T09:04:47.712Z,95.90
2022-08-11T09:07:18.704Z,95.70
2022-08-11T09:09:49.193Z,95.30
2022-08-11T09:12:38.546Z,95.60
2022-08-11T09:15:11.983Z,95.10
2022-08-11T09:17:42.281Z,94.10
2022-08-11T09:20:14.172Z,93.60
2022-08-11T09:26:33.522Z,93.90
2022-08-11T09:29:02.143Z,94.40
2022-08-11T09:31:38.923Z,93.10
2022-08-11T09:34:10.168Z,93.40
2022-08-11T09:36:58.591Z,92.50
2022-08-11T09:39:48.300Z,92.30
2022-08-11T09:42:23.218Z,92.80
2022-08-11T09:44:54.045Z,91.20
2022-08-11T09:47:24.873Z,91.50
2022-08-11T09:49:56.431Z,91.10
2022-08-11T09:52:25.207Z,90.70
2022-08-11T09:54:55.995Z,90.90
2022-08-11T09:57:44.026Z,90.80
2022-08-11T10:00:15.475Z,90.60
2022-08-11T10:02:46.463Z,90.90
2022-08-11T10:05:37.235Z,90.20
2022-08-11T10:08:06.431Z,90.50
2022-08-11T10:10:38.321Z,89.60
2022-08-11T10:14:04.965Z,89.70
2022-08-11T10:16:14.701Z,89.20
2022-08-11T10:18:53.362Z,89.70
2022-08-11T10:21:29.405Z,89.00
2022-08-11T10:24:18.808Z,88.60
2022-08-11T10:26:55.771Z,87.90
2022-08-11T10:29:44.494Z,88.50
2022-08-11T10:32:57.602Z,87.80
2022-08-11T10:35:27.151Z,87.30
2022-08-11T10:38:09.023Z,87.10
2022-08-11T10:40:40.504Z,87.00
2022-08-11T10:43:14.229Z,85.40
2022-08-11T10:46:05.132Z,85.30
2022-08-11T10:48:38.353Z,85.70
2022-08-11T10:51:13.521Z,84.70
2022-08-11T11:02:05.597Z,83.60
2022-08-11T11:04:45.594Z,83.50
2022-08-11T11:07:24.497Z,83.90
2022-08-11T11:09:57.831Z,83.40
2022-08-11T11:12:53.919Z,83.50
2022-08-11T11:15:42.210Z,83.20
2022-08-11T11:18:16.252Z,82.90
2022-08-11T11:20:47.611Z,82.30
2022-08-11T11:23:20.891Z,82.30
2022-08-11T11:26:14.850Z,82.00
2022-08-11T11:29:07.092Z,82.00
2022-08-11T11:31:51.431Z,81.70
2022-08-11T11:34:37.187Z,81.30
2022-08-11T11:37:23.290Z,81.40
2022-08-11T11:39:52.285Z,81.60
2022-08-11T11:42:22.000Z,81.30
2022-08-11T11:44:54.079Z,80.90
2022-08-11T11:47:24.460Z,80.60
2022-08-11T11:52:28.112Z,80.60
2022-08-11T11:54:58.100Z,80.00
2022-08-11T11:57:59.351Z,80.10
2022-08-11T12:00:50.197Z,79.50
2022-08-11T12:03:20.145Z,79.40
2022-08-11T12:05:53.126Z,79.20
2022-08-11T12:08:25.908Z,79.10
2022-08-11T12:11:16.561Z,79.20
2022-08-11T12:13:50.673Z,78.70
2022-08-11T12:16:32.907Z,78.50
2022-08-11T12:19:06.411Z,78.40
2022-08-11T12:21:37.589Z,78.90
2022-08-11T12:24:29.177Z,77.60
2022-08-11T12:27:18.401Z,77.40
2022-08-11T12:29:54.476Z,77.60
2022-08-11T12:32:27.573Z,78.20
2022-08-11T12:34:57.489Z,78.40
2022-08-11T12:37:31.403Z,78.30
2022-08-11T12:40:43.372Z,77.30
2022-08-11T12:43:37.132Z,78.40
2022-08-11T12:46:09.723Z,78.90
2022-08-11T12:49:03.438Z,78.80
2022-08-11T12:52:12.292Z,79.00
2022-08-11T12:54:57.773Z,78.10
2022-08-11T12:57:57.067Z,79.20
2022-08-11T13:00:44.830Z,78.70
2022-08-11T13:03:33.577Z,79.00
2022-08-11T13:06:03.441Z,78.60
2022-08-11T13:08:35.862Z,78.00
2022-08-11T13:11:56.328Z,77.60
2022-08-11T13:14:15.963Z,77.10
2022-08-11T13:17:04.401Z,77.30
2022-08-11T13:19:34.940Z,76.40
2022-08-11T13:22:05.399Z,77.10
2022-08-11T13:24:36.961Z,76.60
2022-08-11T13:27:06.960Z,76.70
2022-08-11T13:29:36.243Z,76.50
2022-08-11T13:32:04.774Z,76.60
2022-08-11T13:34:33.656Z,76.10
2022-08-11T13:37:05.467Z,75.50
2022-08-11T13:39:35.246Z,75.10
2022-08-11T13:42:06.047Z,75.40
2022-08-11T13:44:36.847Z,74.90
2022-08-11T13:47:07.573Z,74.70
2022-08-11T13:49:39.707Z,74.80
2022-08-11T13:52:13.250Z,74.70
2022-08-11T13:54:42.863Z,73.90
2022-08-11T13:58:06.410Z,74.10
2022-08-11T14:00:13.142Z,73.60
2022-08-11T14:02:56.637Z,73.40
2022-08-11T14:05:28.829Z,73.70
2022-08-11T14:08:08.273Z,72.80
2022-08-11T14:12:21.479Z,72.90
2022-08-11T14:14:14.198Z,72.40
2022-08-11T14:16:44.378Z,71.80
2022-08-11T14:19:15.577Z,71.90
2022-08-11T14:22:07.687Z,71.60
2022-08-11T14:24:39.123Z,71.40
2022-08-11T14:27:08.629Z,71.10
2022-08-11T14:29:59.193Z,70.70
2022-08-11T14:32:27.761Z,70.60
2022-08-11T14:34:57.039Z,70.20
2022-08-11T14:37:28.107Z,70.80
2022-08-11T14:40:03.273Z,70.70
2022-08-11T14:42:50.571Z,70.10
2022-08-11T14:45:58.183Z,69.90
2022-08-11T14:48:27.764Z,69.70
2022-08-11T14:50:56.448Z,69.40
2022-08-11T14:53:24.929Z,68.60
2022-08-11T14:56:12.646Z,68.80
2022-08-11T14:58:43.312Z,68.80
2022-08-11T15:01:32.058Z,69.00
2022-08-11T15:04:34.060Z,68.20
2022-08-11T15:06:56.254Z,69.00
2022-08-11T15:09:24.072Z,68.40
2022-08-11T15:12:31.118Z,68.10
2022-08-11T15:15:20.858Z,67.90
2022-08-11T15:17:53.370Z,67.30
2022-08-11T15:20:41.777Z,67.30
2022-08-11T15:23:28.436Z,66.60
2022-08-11T15:25:58.966Z,67.20
2022-08-11T15:28:47.576Z,66.90
2022-08-11T15:31:29.305Z,67.00
2022-08-11T15:34:22.126Z,68.50
2022-08-11T15:37:13.935Z,69.70
2022-08-11T15:40:06.526Z,69.00
2022-08-11T15:42:55.276Z,67.40
2022-08-11T15:45:44.149Z,67.00
2022-08-11T15:48:17.013Z,67.20
2022-08-11T15:50:52.805Z,67.60
2022-08-11T15:53:30.825Z,67.10
2022-08-11T15:56:02.452Z,66.80
2022-08-11T15:59:40.565Z,65.80
2022-08-11T16:02:12.059Z,65.30
2022-08-11T16:04:46.565Z,65.50
2022-08-11T16:07:17.679Z,65.20
2022-08-11T16:09:51.833Z,64.70
2022-08-11T16:12:25.280Z,64.40
2022-08-11T16:15:15.442Z,64.60
2022-08-11T16:17:52.675Z,65.10
2022-08-11T16:20:22.519Z,64.60
2022-08-11T16:23:01.361Z,65.00
2022-08-11T16:27:05.617Z,66.50
2022-08-11T16:28:23.521Z,67.10
2022-08-11T16:30:52.803Z,68.00
2022-08-11T16:33:50.128Z,69.00
2022-08-11T16:36:33.250Z,69.70
2022-08-11T16:39:04.998Z,68.80
2022-08-11T16:41:53.291Z,69.80
2022-08-11T16:44:40.986Z,70.10
2022-08-11T16:47:16.573Z,69.60
2022-08-11T16:49:52.312Z,70.30
2022-08-11T16:52:22.546Z,71.20
2022-08-11T16:54:52.895Z,71.40
2022-08-11T16:58:03.176Z,71.50
2022-08-11T17:00:32.190Z,72.00
2022-08-11T17:03:20.464Z,72.80
2022-08-11T17:06:12.020Z,73.00
2022-08-11T17:09:05.189Z,73.50
2022-08-11T17:12:03.226Z,73.70
2022-08-11T17:14:38.512Z,74.20
2022-08-11T17:17:12.800Z,74.60
2022-08-11T17:20:41.889Z,74.30
2022-08-11T17:22:54.900Z,73.30
2022-08-11T17:25:28.465Z,72.30
2022-08-11T17:27:59.934Z,71.40
2022-08-11T17:30:48.610Z,70.90
2022-08-11T17:33:35.214Z,70.80
2022-08-11T17:36:04.016Z,72.20
2022-08-11T17:38:34.379Z,73.30
2022-08-11T17:41:23.627Z,73.50
2022-08-11T17:44:13.669Z,73.80
2022-08-11T17:49:31.386Z,74.90
2022-08-11T17:52:17.799Z,75.00
2022-08-11T17:55:06.141Z,75.20
2022-08-11T17:57:55.755Z,75.60
2022-08-11T18:00:26.170Z,75.90
2022-08-11T18:03:14.877Z,76.10
2022-08-11T18:05:45.768Z,76.30
2022-08-11T18:08:33.606Z,76.60
2022-08-11T18:12:06.741Z,76.80
2022-08-11T18:14:31.821Z,76.90
2022-08-11T18:17:19.548Z,77.10
2022-08-11T18:20:06.460Z,77.20
2022-08-11T18:22:56.409Z,77.50
2022-08-11T18:25:45.943Z,77.80
2022-08-11T18:28:35.005Z,78.00
2022-08-11T18:31:23.527Z,78.10
2022-08-11T18:37:08.408Z,78.70
2022-08-11T18:40:02.189Z,79.00
2022-08-11T18:42:51.862Z,79.00
2022-08-11T18:45:45.570Z,79.10
2022-08-11T18:48:37.401Z,79.00
2022-08-11T18:51:30.468Z,78.80
2022-08-11T18:54:27.475Z,78.90
2022-08-11T18:57:19.329Z,78.70
2022-08-11T19:00:07.185Z,79.00
2022-08-11T19:02:58.011Z,79.20
2022-08-11T19:06:35.841Z,79.20
2022-08-11T19:09:07.350Z,79.30
2022-08-11T19:11:55.542Z,79.20
2022-08-11T19:14:49.810Z,79.30
2022-08-11T19:17:43.587Z,79.30
2022-08-11T19:20:35.767Z,79.60
2022-08-11T19:23:24.187Z,79.80
2022-08-11T19:26:13.164Z,80.20
2022-08-11T19:29:02.896Z,80.30
2022-08-11T19:31:50.386Z,80.40
2022-08-11T19:34:39.051Z,80.60
2022-08-11T19:37:27.438Z,80.90
2022-08-11T19:40:17.217Z,81.30
2022-08-11T19:43:11.295Z,81.50
2022-08-11T19:46:12.126Z,81.10
2022-08-11T19:49:00.754Z,81.20
2022-08-11T19:51:53.550Z,81.40
2022-08-11T19:54:44.611Z,81.50
2022-08-11T19:57:35.774Z,81.40
2022-08-11T20:00:30.728Z,81.70
2022-08-11T20:03:17.992Z,82.10
2022-08-11T20:06:06.281Z,82.30
2022-08-11T20:08:58.601Z,82.40
2022-08-11T20:11:48.820Z,82.40
2022-08-11T20:14:36.898Z,82.70
2022-08-11T20:17:25.854Z,82.60
2022-08-11T20:20:12.566Z,82.60
2022-08-11T20:23:00.945Z,82.70
2022-08-11T20:25:49.025Z,82.80
2022-08-11T20:28:38.670Z,82.90
2022-08-11T20:31:26.347Z,82.80
2022-08-11T20:34:15.431Z,82.90
2022-08-11T20:37:02.694Z,83.10
2022-08-11T20:39:50.842Z,83.00
2022-08-11T20:42:38.629Z,83.50
2022-08-11T20:45:27.460Z,83.70
2022-08-11T20:48:17.297Z,84.20
2022-08-11T20:51:07.560Z,84.40
2022-08-11T20:53:57.021Z,84.50
2022-08-11T20:59:56.696Z,84.50
2022-08-11T21:02:45.938Z,84.30
2022-08-11T21:06:08.468Z,84.20
2022-08-11T21:08:47.895Z,84.20
2022-08-11T21:11:34.617Z,84.10
2022-08-11T21:14:22.086Z,84.00
2022-08-11T21:17:27.410Z,83.60
2022-08-11T21:20:22.543Z,83.60
2022-08-11T21:23:19.898Z,83.70
2022-08-11T21:26:16.043Z,83.60
2022-08-11T21:29:04.038Z,83.60
2022-08-11T21:31:52.232Z,84.00
2022-08-11T21:34:41.742Z,84.60
2022-08-11T21:37:31.797Z,84.80
2022-08-11T21:40:26.019Z,84.50
2022-08-11T21:43:16.484Z,84.50
2022-08-11T21:46:06.589Z,85.60
2022-08-11T21:48:56.180Z,86.10
2022-08-11T21:51:44.607Z,85.80
2022-08-11T21:54:32.429Z,85.20
2022-08-11T21:57:19.489Z,84.60
2022-08-11T22:00:11.948Z,84.20
2022-08-11T22:02:59.333Z,83.80
2022-08-11T22:05:47.266Z,83.00
2022-08-11T22:08:34.691Z,82.60
2022-08-11T22:11:31.984Z,82.20
2022-08-11T22:14:20.120Z,84.50
2022-08-11T22:17:08.772Z,85.80
2022-08-11T22:19:56.772Z,86.10
2022-08-11T22:22:52.538Z,85.30
2022-08-11T22:25:51.025Z,84.40
2022-08-11T22:28:37.763Z,82.40
2022-08-11T22:31:25.516Z,81.70
2022-08-11T22:34:14.008Z,81.20
2022-08-11T22:37:01.668Z,81.40
2022-08-11T22:40:01.717Z,81.70
2022-08-11T22:42:50.153Z,81.50
2022-08-11T22:45:36.736Z,81.60
2022-08-11T22:48:24.211Z,82.30
2022-08-11T22:51:13.512Z,82.50
2022-08-11T22:54:00.185Z,82.60
2022-08-11T22:56:48.529Z,82.60
2022-08-11T22:59:36.555Z,82.50
2022-08-11T23:02:25.388Z,82.50
2022-08-11T23:05:12.748Z,82.70
2022-08-11T23:08:01.181Z,82.70
2022-08-11T23:10:48.668Z,83.00
2022-08-11T23:13:35.634Z,82.90
2022-08-11T23:16:23.028Z,82.60
2022-08-11T23:19:09.664Z,83.00
2022-08-11T23:21:56.942Z,83.10
2022-08-11T23:24:45.764Z,83.00
2022-08-11T23:27:33.645Z,83.40
2022-08-11T23:30:20.825Z,83.30
2022-08-11T23:33:11.293Z,83.40
2022-08-11T23:36:02.300Z,83.40
2022-08-11T23:38:52.065Z,83.80
2022-08-11T23:41:40.975Z,84.40
2022-08-11T23:44:28.194Z,84.80
2022-08-11T23:47:19.366Z,85.20
2022-08-11T23:50:06.808Z,85.30
2022-08-11T23:52:54.863Z,85.10
2022-08-11T23:55:41.506Z,84.70
2022-08-11T23:58:29.899Z,84.90
